createdAt,value
2023-07-18T00:01:15.222Z,26.44
2023-07-18T00:03:45.129Z,26.39
2023-07-18T00:06:18.704Z,26.34
2023-07-18T00:08:48.837Z,26.29
2023-07-18T00:11:19.114Z,26.24
2023-07-18T00:13:49.492Z,26.20
2023-07-18T00:16:19.871Z,26.16
2023-07-18T00:18:51.358Z,26.14
2023-07-18T00:21:21.997Z,26.10
2023-07-18T00:23:52.192Z,26.05
2023-07-18T00:26:25.112Z,26.00
2023-07-18T00:28:55.713Z,25.94
2023-07-18T00:31:26.060Z,25.90
2023-07-18T00:33:56.351Z,25.84
2023-07-18T00:36:26.803Z,25.80
2023-07-18T00:38:57.004Z,25.74
2023-07-18T00:41:27.529Z,25.70
2023-07-18T00:43:58.469Z,25.65
2023-07-18T00:46:30.333Z,25.61
2023-07-18T00:49:01.571Z,25.57
2023-07-18T00:51:32.731Z,25.53
2023-07-18T00:54:04.066Z,25.48
2023-07-18T00:56:35.617Z,25.42
2023-07-18T00:59:07.822Z,25.34
2023-07-18T01:01:38.562Z,25.21
2023-07-18T01:04:09.669Z,25.12
2023-07-18T01:06:40.006Z,25.08
2023-07-18T01:09:10.711Z,25.01
2023-07-18T01:11:40.834Z,24.98
2023-07-18T01:14:11.368Z,24.98
2023-07-18T01:16:43.729Z,24.95
2023-07-18T01:19:16.110Z,24.94
2023-07-18T01:21:46.025Z,24.93
2023-07-18T01:24:16.120Z,24.92
2023-07-18T01:26:47.077Z,24.90
2023-07-18T01:29:17.404Z,24.87
2023-07-18T01:31:48.919Z,24.86
2023-07-18T01:34:19.067Z,24.84
2023-07-18T01:36:49.778Z,24.80
2023-07-18T01:39:20.331Z,24.78
2023-07-18T01:41:50.451Z,24.75
2023-07-18T01:44:20.974Z,24.74
2023-07-18T01:46:51.313Z,24.72
2023-07-18T01:49:21.625Z,24.69
2023-07-18T01:51:51.532Z,24.66
2023-07-18T01:54:21.777Z,24.64
2023-07-18T01:56:52.390Z,24.61
2023-07-18T01:59:23.937Z,24.59
2023-07-18T02:01:54.099Z,24.57
2023-07-18T02:04:24.793Z,24.55
2023-07-18T02:06:55.327Z,24.51
2023-07-18T02:09:25.582Z,24.46
2023-07-18T02:11:56.791Z,24.43
2023-07-18T02:14:26.908Z,24.38
2023-07-18T02:16:58.908Z,24.34
2023-07-18T02:19:29.190Z,24.32
2023-07-18T02:21:59.112Z,24.29
2023-07-18T02:24:28.811Z,24.25
2023-07-18T02:26:59.958Z,24.22
2023-07-18T02:29:30.485Z,24.19
2023-07-18T02:32:00.606Z,24.14
2023-07-18T02:34:30.732Z,24.10
2023-07-18T02:37:00.866Z,24.09
2023-07-18T02:39:33.151Z,24.05
2023-07-18T02:42:01.960Z,24.02
2023-07-18T02:44:32.137Z,23.98
2023-07-18T02:47:02.002Z,23.96
2023-07-18T02:49:32.044Z,23.92
2023-07-18T02:52:03.809Z,23.90
2023-07-18T02:54:33.923Z,23.87
2023-07-18T02:57:05.933Z,23.84
2023-07-18T02:59:36.412Z,23.81
2023-07-18T03:02:07.137Z,23.78
2023-07-18T03:04:37.480Z,23.74
2023-07-18T03:07:08.979Z,23.73
2023-07-18T03:09:39.107Z,23.69
2023-07-18T03:12:11.458Z,23.67
2023-07-18T03:14:42.941Z,23.64
2023-07-18T03:17:13.022Z,23.61
2023-07-18T03:19:43.308Z,23.58
2023-07-18T03:22:14.031Z,23.56
2023-07-18T03:24:44.970Z,23.55
2023-07-18T03:27:15.304Z,23.51
2023-07-18T03:29:45.251Z,23.45
2023-07-18T03:32:15.272Z,23.42
2023-07-18T03:34:46.059Z,23.41
2023-07-18T03:37:16.552Z,23.42
2023-07-18T03:39:46.501Z,23.44
2023-07-18T03:42:16.619Z,23.44
2023-07-18T03:44:47.353Z,23.47
2023-07-18T03:47:21.202Z,23.46
2023-07-18T03:49:52.094Z,23.48
2023-07-18T03:52:22.214Z,23.50
2023-07-18T03:54:52.738Z,23.49
2023-07-18T03:57:23.241Z,23.49
2023-07-18T03:59:52.978Z,23.50
2023-07-18T04:02:22.801Z,23.49
2023-07-18T04:04:53.222Z,23.50
2023-07-18T04:07:23.746Z,23.52
2023-07-18T04:09:53.632Z,23.56
2023-07-18T04:12:23.984Z,23.59
2023-07-18T04:14:54.719Z,23.64
2023-07-18T04:17:25.337Z,23.70
2023-07-18T04:19:58.411Z,23.77
2023-07-18T04:22:30.404Z,23.83
2023-07-18T04:25:00.924Z,23.90
2023-07-18T04:27:31.456Z,23.98
2023-07-18T04:30:01.171Z,24.07
2023-07-18T04:32:31.858Z,24.15
2023-07-18T04:35:02.024Z,24.21
2023-07-18T04:37:32.744Z,24.26
2023-07-18T04:40:02.992Z,24.34
2023-07-18T04:42:35.858Z,24.37
2023-07-18T04:45:08.686Z,24.46
2023-07-18T04:47:39.080Z,24.57
2023-07-18T04:50:11.472Z,24.68
2023-07-18T04:52:41.441Z,24.80
2023-07-18T04:55:12.554Z,24.86
2023-07-18T04:57:42.705Z,24.90
2023-07-18T05:00:16.372Z,24.93
2023-07-18T05:02:46.445Z,24.99
2023-07-18T05:05:18.754Z,25.05
2023-07-18T05:07:48.909Z,25.11
2023-07-18T05:10:19.170Z,25.19
2023-07-18T05:12:49.353Z,25.28
2023-07-18T05:15:20.531Z,25.40
2023-07-18T05:17:49.883Z,25.51
2023-07-18T05:20:20.140Z,25.60
2023-07-18T05:22:50.291Z,25.69
2023-07-18T05:25:20.772Z,25.75
2023-07-18T05:27:51.301Z,25.86
2023-07-18T05:30:21.191Z,26.01
2023-07-18T05:32:54.202Z,26.13
2023-07-18T05:35:25.468Z,26.20
2023-07-18T05:37:57.096Z,26.30
2023-07-18T05:40:27.215Z,26.38
2023-07-18T05:42:57.337Z,26.46
2023-07-18T05:45:28.079Z,26.51
2023-07-18T05:47:57.762Z,26.60
2023-07-18T05:50:28.109Z,26.71
2023-07-18T05:52:57.993Z,26.83
2023-07-18T05:55:29.049Z,26.93
2023-07-18T05:57:58.045Z,27.06
2023-07-18T06:00:28.373Z,27.14
2023-07-18T06:02:59.044Z,27.23
2023-07-18T06:05:30.047Z,27.37
2023-07-18T06:08:00.181Z,27.45
2023-07-18T06:10:29.875Z,27.58
2023-07-18T06:13:00.605Z,27.74
2023-07-18T06:15:31.261Z,27.89
2023-07-18T06:18:01.493Z,28.03
2023-07-18T06:20:33.619Z,28.12
2023-07-18T06:23:03.788Z,28.19
2023-07-18T06:25:34.046Z,28.32
2023-07-18T06:28:05.413Z,28.41
2023-07-18T06:30:36.332Z,28.54
2023-07-18T06:33:05.296Z,28.68
2023-07-18T06:35:35.973Z,28.76
2023-07-18T06:38:05.392Z,28.88
2023-07-18T06:40:35.313Z,29.01
2023-07-18T06:43:05.105Z,29.13
2023-07-18T06:45:36.050Z,29.25
2023-07-18T06:48:06.798Z,29.36
2023-07-18T06:50:37.296Z,29.47
2023-07-18T06:53:07.216Z,29.61
2023-07-18T06:55:36.845Z,29.70
2023-07-18T06:58:06.837Z,29.89
2023-07-18T07:00:36.941Z,30.08
2023-07-18T07:03:09.189Z,30.21
2023-07-18T07:05:40.672Z,30.29
2023-07-18T07:08:11.264Z,30.40
2023-07-18T07:10:42.334Z,30.46
2023-07-18T07:13:11.146Z,30.51
2023-07-18T07:15:42.170Z,30.53
2023-07-18T07:18:12.285Z,30.64
2023-07-18T07:20:42.197Z,30.87
2023-07-18T07:23:11.962Z,31.03
2023-07-18T07:25:45.110Z,31.19
2023-07-18T07:28:15.361Z,31.39
2023-07-18T07:30:45.393Z,31.41
2023-07-18T07:33:15.600Z,31.57
2023-07-18T07:35:46.612Z,31.76
2023-07-18T07:38:18.284Z,31.85
2023-07-18T07:40:47.857Z,31.96
2023-07-18T07:43:17.581Z,32.17
2023-07-18T07:45:47.455Z,32.41
2023-07-18T07:48:17.643Z,32.56
2023-07-18T07:50:49.059Z,32.77
2023-07-18T07:53:19.192Z,32.98
2023-07-18T07:55:48.974Z,33.18
2023-07-18T07:58:18.500Z,33.41
2023-07-18T08:00:48.812Z,33.60
2023-07-18T08:03:19.559Z,33.79
2023-07-18T08:05:50.482Z,33.97
2023-07-18T08:08:19.981Z,34.16
2023-07-18T08:10:49.904Z,34.18
2023-07-18T08:13:20.146Z,34.19
2023-07-18T08:15:51.577Z,34.23
2023-07-18T08:18:21.503Z,34.34
2023-07-18T08:20:51.401Z,34.41
2023-07-18T08:23:21.325Z,34.53
2023-07-18T08:25:51.430Z,34.59
2023-07-18T08:28:22.720Z,34.65
2023-07-18T08:30:52.899Z,34.73
2023-07-18T08:33:24.862Z,34.86
2023-07-18T08:35:54.989Z,35.00
2023-07-18T08:38:24.888Z,35.10
2023-07-18T08:40:54.408Z,35.16
2023-07-18T08:43:25.550Z,35.24
2023-07-18T08:45:56.880Z,35.32
2023-07-18T08:48:26.963Z,35.36
2023-07-18T08:51:00.773Z,35.42
2023-07-18T08:53:31.133Z,35.56
2023-07-18T08:56:01.915Z,35.67
2023-07-18T08:58:31.988Z,35.82
2023-07-18T09:01:01.897Z,35.89
2023-07-18T09:03:32.880Z,36.00
2023-07-18T09:06:05.217Z,36.12
2023-07-18T09:08:42.902Z,36.26
2023-07-18T09:11:13.540Z,36.43
2023-07-18T09:13:44.712Z,36.59
2023-07-18T09:16:16.526Z,36.61
2023-07-18T09:18:50.872Z,36.67
2023-07-18T09:21:22.018Z,36.78
2023-07-18T09:23:53.449Z,36.94
2023-07-18T09:26:23.840Z,37.06
2023-07-18T09:28:53.175Z,37.13
2023-07-18T09:31:25.401Z,37.25
2023-07-18T09:33:56.394Z,37.33
2023-07-18T09:36:27.252Z,37.39
2023-07-18T09:38:57.039Z,37.45
2023-07-18T09:41:26.999Z,37.51
2023-07-18T09:44:13.937Z,37.48
2023-07-18T09:46:46.232Z,37.42
2023-07-18T09:49:15.719Z,37.42
2023-07-18T09:51:52.216Z,37.45
2023-07-18T09:54:23.689Z,37.52
2023-07-18T09:56:55.717Z,37.54
2023-07-18T09:59:28.991Z,37.41
2023-07-18T10:01:59.644Z,37.44
2023-07-18T10:04:30.583Z,37.59
2023-07-18T10:07:02.748Z,37.77
2023-07-18T10:09:34.036Z,37.95
2023-07-18T10:12:12.211Z,38.10
2023-07-18T10:14:57.500Z,38.26
2023-07-18T10:17:34.894Z,38.29
2023-07-18T10:20:13.897Z,38.32
2023-07-18T10:22:53.896Z,38.28
2023-07-18T10:25:23.752Z,38.28
2023-07-18T10:27:54.719Z,38.39
2023-07-18T10:30:25.197Z,38.52
2023-07-18T10:32:56.774Z,38.52
2023-07-18T10:35:28.068Z,38.47
2023-07-18T10:38:03.707Z,38.41
2023-07-18T10:40:39.740Z,38.46
2023-07-18T10:43:11.108Z,38.52
2023-07-18T10:45:42.811Z,38.59
2023-07-18T10:48:16.695Z,38.61
2023-07-18T10:50:49.499Z,38.64
2023-07-18T10:53:21.090Z,38.72
2023-07-18T10:55:52.976Z,38.70
2023-07-18T10:58:23.979Z,38.70
2023-07-18T11:00:54.140Z,38.69
2023-07-18T11:03:27.721Z,38.65
2023-07-18T11:05:57.993Z,38.62
2023-07-18T11:08:28.338Z,38.67
2023-07-18T11:10:59.843Z,38.72
2023-07-18T11:13:31.653Z,38.78
2023-07-18T11:16:03.609Z,38.82
2023-07-18T11:18:36.690Z,38.79
2023-07-18T11:21:07.965Z,38.63
2023-07-18T11:23:39.300Z,38.46
2023-07-18T11:26:15.544Z,38.36
2023-07-18T11:28:47.025Z,38.22
2023-07-18T11:34:02.494Z,38.00
2023-07-18T11:36:34.105Z,38.04
2023-07-18T11:39:04.700Z,38.05
2023-07-18T11:41:35.340Z,38.10
2023-07-18T11:44:06.438Z,38.17
2023-07-18T11:46:41.290Z,38.19
2023-07-18T11:49:13.251Z,38.25
2023-07-18T11:51:44.191Z,38.25
2023-07-18T11:54:14.494Z,38.23
2023-07-18T11:56:44.608Z,38.22
2023-07-18T11:59:14.758Z,38.30
2023-07-18T12:01:44.709Z,38.42
2023-07-18T12:04:15.015Z,38.53
2023-07-18T12:06:44.086Z,38.61
2023-07-18T12:09:13.777Z,38.61
2023-07-18T12:11:45.056Z,38.68
2023-07-18T12:14:15.458Z,38.70
2023-07-18T12:16:45.601Z,38.66
2023-07-18T12:19:15.857Z,38.65
2023-07-18T12:21:45.615Z,38.60
2023-07-18T12:24:16.535Z,38.61
2023-07-18T12:26:46.252Z,38.58
2023-07-18T12:29:17.889Z,38.53
2023-07-18T12:31:50.000Z,38.53
2023-07-18T12:34:20.212Z,38.53
2023-07-18T12:36:48.963Z,38.43
2023-07-18T12:39:20.068Z,38.44
2023-07-18T12:41:49.666Z,38.50
2023-07-18T12:44:24.321Z,38.52
2023-07-18T12:46:57.154Z,38.61
2023-07-18T12:51:58.846Z,38.61
2023-07-18T12:54:29.036Z,38.57
2023-07-18T12:57:00.517Z,38.53
2023-07-18T12:59:30.502Z,38.47
2023-07-18T13:02:00.889Z,38.51
2023-07-18T13:04:31.353Z,38.53
2023-07-18T13:07:01.466Z,38.47
2023-07-18T13:09:32.006Z,38.52
2023-07-18T13:12:01.513Z,38.57
2023-07-18T13:14:32.848Z,38.64
2023-07-18T13:17:02.170Z,38.66
2023-07-18T13:19:31.863Z,38.73
2023-07-18T13:22:01.979Z,38.74
2023-07-18T13:24:32.099Z,38.72
2023-07-18T13:27:01.811Z,38.72
2023-07-18T13:29:31.448Z,38.70
2023-07-18T13:32:01.088Z,38.67
2023-07-18T13:34:32.165Z,38.69
2023-07-18T13:37:03.435Z,38.68
2023-07-18T13:39:33.391Z,38.70
2023-07-18T13:42:03.146Z,38.56
2023-07-18T13:44:35.271Z,38.46
2023-07-18T13:47:05.639Z,38.38
2023-07-18T13:49:49.645Z,38.34
2023-07-18T13:52:22.866Z,38.30
2023-07-18T13:54:54.417Z,38.30
2023-07-18T13:57:24.739Z,38.33
2023-07-18T13:59:54.268Z,38.35
2023-07-18T14:02:24.577Z,38.23
2023-07-18T14:04:54.694Z,38.24
2023-07-18T14:07:23.985Z,38.29
2023-07-18T14:09:53.874Z,38.32
2023-07-18T14:12:23.942Z,38.33
2023-07-18T14:14:54.137Z,38.30
2023-07-18T14:17:23.007Z,38.26
2023-07-18T14:19:52.948Z,38.23
2023-07-18T14:22:23.393Z,38.24
2023-07-18T14:24:53.389Z,38.20
2023-07-18T14:27:22.911Z,38.18
2023-07-18T14:29:52.810Z,38.08
2023-07-18T14:32:23.124Z,38.09
2023-07-18T14:34:52.426Z,38.12
2023-07-18T14:37:22.547Z,38.04
2023-07-18T14:40:02.896Z,37.99
2023-07-18T14:42:31.512Z,38.01
2023-07-18T14:45:01.308Z,37.96
2023-07-18T14:47:30.932Z,37.92
2023-07-18T14:50:02.675Z,37.95
2023-07-18T14:52:32.477Z,37.98
2023-07-18T14:55:03.081Z,37.93
2023-07-18T14:57:32.689Z,37.84
2023-07-18T15:00:02.953Z,37.85
2023-07-18T15:02:33.572Z,37.83
2023-07-18T15:05:03.865Z,37.77
2023-07-18T15:07:34.006Z,37.67
2023-07-18T15:10:03.980Z,37.55
2023-07-18T15:12:33.600Z,37.47
2023-07-18T15:15:04.171Z,37.42
2023-07-18T15:17:40.388Z,37.36
2023-07-18T15:20:12.849Z,37.33
2023-07-18T15:22:43.782Z,37.30
2023-07-18T15:25:13.847Z,37.26
2023-07-18T15:27:44.713Z,37.27
2023-07-18T15:30:15.162Z,37.27
2023-07-18T15:32:46.897Z,37.16
2023-07-18T15:35:17.365Z,37.10
2023-07-18T15:37:47.245Z,37.01
2023-07-18T15:40:17.078Z,36.92
2023-07-18T15:42:46.287Z,36.82
2023-07-18T15:45:16.027Z,36.68
2023-07-18T15:47:46.714Z,36.60
2023-07-18T15:50:16.271Z,36.50
2023-07-18T15:52:46.383Z,36.34
2023-07-18T15:55:16.496Z,36.21
2023-07-18T15:57:45.925Z,36.08
2023-07-18T16:00:17.795Z,35.96
2023-07-18T16:02:47.934Z,35.91
2023-07-18T16:05:17.986Z,35.84
2023-07-18T16:07:47.924Z,35.73
2023-07-18T16:10:17.535Z,35.61
2023-07-18T16:12:47.981Z,35.48
2023-07-18T16:15:17.844Z,35.37
2023-07-18T16:17:47.533Z,35.28
2023-07-18T16:20:17.256Z,35.19
2023-07-18T16:22:53.035Z,35.14
2023-07-18T16:25:22.992Z,35.09
2023-07-18T16:27:54.526Z,35.05
2023-07-18T16:30:24.468Z,34.99
2023-07-18T16:32:55.531Z,34.97
2023-07-18T16:35:25.561Z,34.94
2023-07-18T16:37:55.076Z,34.84
2023-07-18T16:40:24.979Z,34.77
2023-07-18T16:42:57.288Z,34.68
2023-07-18T16:45:27.401Z,34.60
2023-07-18T16:47:57.645Z,34.53
2023-07-18T16:50:27.850Z,34.46
2023-07-18T16:52:58.580Z,34.40
2023-07-18T16:55:29.597Z,34.34
2023-07-18T16:57:59.720Z,34.28
2023-07-18T17:00:29.172Z,34.17
2023-07-18T17:02:59.216Z,34.08
2023-07-18T17:05:29.468Z,33.96
2023-07-18T17:07:59.574Z,33.85
2023-07-18T17:10:30.204Z,33.76
2023-07-18T17:13:00.434Z,33.61
2023-07-18T17:15:31.376Z,33.46
2023-07-18T17:18:01.563Z,33.30
2023-07-18T17:20:31.458Z,33.16
2023-07-18T17:23:01.573Z,33.06
2023-07-18T17:25:31.767Z,32.96
2023-07-18T17:28:01.732Z,32.86
2023-07-18T17:30:31.466Z,32.74
2023-07-18T17:33:02.265Z,32.65
2023-07-18T17:35:31.089Z,32.53
2023-07-18T17:38:00.607Z,32.40
2023-07-18T17:40:30.082Z,32.29
2023-07-18T17:43:04.230Z,32.17
2023-07-18T17:45:35.048Z,32.00
2023-07-18T17:48:06.057Z,31.87
2023-07-18T17:50:35.560Z,31.77
2023-07-18T17:53:06.015Z,31.65
2023-07-18T17:55:36.258Z,31.53
2023-07-18T17:58:06.050Z,31.44
2023-07-18T18:00:35.473Z,31.36
2023-07-18T18:03:06.576Z,31.24
2023-07-18T18:05:46.272Z,31.12
2023-07-18T18:08:16.990Z,31.00
2023-07-18T18:10:46.258Z,30.88
2023-07-18T18:13:16.593Z,30.79
2023-07-18T18:16:05.107Z,30.71
2023-07-18T18:18:37.326Z,30.66
2023-07-18T18:21:09.475Z,30.62
2023-07-18T18:23:40.730Z,30.56
2023-07-18T18:26:11.174Z,30.50
2023-07-18T18:28:41.267Z,30.44
2023-07-18T18:31:13.312Z,30.34
2023-07-18T18:33:43.352Z,30.20
2023-07-18T18:36:14.096Z,30.12
2023-07-18T18:38:44.538Z,30.04
2023-07-18T18:41:15.182Z,29.96
2023-07-18T18:43:45.252Z,29.87
2023-07-18T18:46:15.433Z,29.80
2023-07-18T18:48:45.084Z,29.73
2023-07-18T18:51:15.410Z,29.65
2023-07-18T18:53:44.833Z,29.59
2023-07-18T18:56:14.834Z,29.54
2023-07-18T18:58:45.332Z,29.48
2023-07-18T19:01:15.471Z,29.44
2023-07-18T19:03:45.600Z,29.40
2023-07-18T19:06:15.502Z,29.38
2023-07-18T19:08:45.224Z,29.35
2023-07-18T19:11:15.953Z,29.30
2023-07-18T19:13:49.266Z,29.22
2023-07-18T19:16:32.856Z,29.11
2023-07-18T19:19:09.197Z,29.02
2023-07-18T19:21:40.183Z,28.91
2023-07-18T19:24:10.145Z,28.83
2023-07-18T19:26:39.780Z,28.78
2023-07-18T19:29:09.930Z,28.73
2023-07-18T19:31:40.682Z,28.67
2023-07-18T19:34:10.365Z,28.62
2023-07-18T19:36:40.485Z,28.58
2023-07-18T19:39:12.035Z,28.53
2023-07-18T19:41:43.395Z,28.46
2023-07-18T19:44:13.098Z,28.40
2023-07-18T19:46:43.235Z,28.36
2023-07-18T19:49:13.746Z,28.31
2023-07-18T19:51:44.672Z,28.24
2023-07-18T19:54:14.407Z,28.19
2023-07-18T19:56:44.920Z,28.17
2023-07-18T19:59:15.160Z,28.14
2023-07-18T20:01:46.882Z,28.07
2023-07-18T20:04:17.548Z,28.02
2023-07-18T20:06:47.050Z,27.95
2023-07-18T20:09:17.140Z,27.91
2023-07-18T20:11:48.300Z,27.86
2023-07-18T20:14:18.330Z,27.81
2023-07-18T20:16:48.223Z,27.77
2023-07-18T20:19:18.854Z,27.71
2023-07-18T20:21:49.150Z,27.65
2023-07-18T20:24:19.082Z,27.59
2023-07-18T20:26:48.994Z,27.54
2023-07-18T20:29:20.144Z,27.48
2023-07-18T20:31:50.926Z,27.44
2023-07-18T20:34:20.798Z,27.37
2023-07-18T20:36:51.121Z,27.30
2023-07-18T20:39:21.275Z,27.22
2023-07-18T20:41:51.180Z,27.18
2023-07-18T20:44:21.275Z,27.13
2023-07-18T20:46:51.168Z,27.09
2023-07-18T20:49:22.332Z,27.05
2023-07-18T20:51:52.459Z,27.01
2023-07-18T20:54:22.777Z,26.97
2023-07-18T20:56:52.681Z,26.94
2023-07-18T20:59:23.413Z,26.92
2023-07-18T21:01:54.006Z,26.84
2023-07-18T21:04:24.281Z,26.78
2023-07-18T21:06:54.390Z,26.74
2023-07-18T21:09:25.330Z,26.71
2023-07-18T21:11:55.440Z,26.66
2023-07-18T21:14:25.365Z,26.62
2023-07-18T21:16:55.689Z,26.55
2023-07-18T21:19:26.211Z,26.53
2023-07-18T21:21:56.935Z,26.48
2023-07-18T21:24:26.856Z,26.44
2023-07-18T21:26:57.076Z,26.40
2023-07-18T21:29:27.302Z,26.37
2023-07-18T21:31:57.865Z,26.31
2023-07-18T21:34:27.487Z,26.27
2023-07-18T21:36:58.705Z,26.22
2023-07-18T21:39:29.617Z,26.17
2023-07-18T21:41:59.424Z,26.12
2023-07-18T21:44:29.442Z,26.07
2023-07-18T21:46:59.349Z,26.04
2023-07-18T21:49:30.312Z,26.00
2023-07-18T21:52:00.204Z,25.96
2023-07-18T21:54:30.332Z,25.89
2023-07-18T21:57:00.031Z,25.83
2023-07-18T21:59:31.792Z,25.75
2023-07-18T22:02:02.255Z,25.70
2023-07-18T22:04:32.219Z,25.62
2023-07-18T22:07:02.143Z,25.55
2023-07-18T22:09:33.620Z,25.50
2023-07-18T22:12:04.368Z,25.43
2023-07-18T22:14:34.362Z,25.38
2023-07-18T22:17:04.366Z,25.32
2023-07-18T22:19:34.997Z,25.26
2023-07-18T22:22:06.520Z,25.21
2023-07-18T22:24:36.463Z,25.16
2023-07-18T22:27:07.400Z,25.12
2023-07-18T22:29:37.961Z,25.07
2023-07-18T22:32:10.188Z,25.01
2023-07-18T22:34:40.418Z,24.97
2023-07-18T22:37:10.660Z,24.89
2023-07-18T22:39:42.849Z,24.82
2023-07-18T22:42:17.197Z,24.75
2023-07-18T22:44:48.456Z,24.68
2023-07-18T22:47:17.733Z,24.58
2023-07-18T22:49:48.301Z,24.51
2023-07-18T22:52:19.407Z,24.43
2023-07-18T22:54:51.240Z,24.35
2023-07-18T22:57:21.925Z,24.30
2023-07-18T22:59:53.721Z,24.26
2023-07-18T23:02:24.455Z,24.22
2023-07-18T23:04:54.336Z,24.17
2023-07-18T23:07:24.660Z,24.13
2023-07-18T23:09:55.601Z,24.09
2023-07-18T23:12:25.100Z,24.04
2023-07-18T23:14:55.229Z,23.98
2023-07-18T23:17:25.871Z,23.94
2023-07-18T23:19:55.845Z,23.88
2023-07-18T23:22:25.787Z,23.85
2023-07-18T23:24:56.316Z,23.81
2023-07-18T23:27:26.215Z,23.75
2023-07-18T23:29:56.548Z,23.70
2023-07-18T23:32:26.689Z,23.64
2023-07-18T23:34:57.951Z,23.61
2023-07-18T23:37:28.533Z,23.56
2023-07-18T23:39:58.446Z,23.52
2023-07-18T23:42:29.917Z,23.47
2023-07-18T23:44:59.704Z,23.43
2023-07-18T23:47:29.845Z,23.39
2023-07-18T23:49:59.952Z,23.32
2023-07-18T23:52:29.874Z,23.25
2023-07-18T23:54:59.989Z,23.21
2023-07-18T23:57:29.877Z,23.17
